sensor_id;sensor_type;location;lat;lon;timestamp;temperature;humidity
14252;DHT22;7210;51.502;10.722;2024-03-23T00:54:37;8.50;99.90
14252;DHT22;7210;51.502;10.722;2024-03-23T00:57:03;8.50;99.90
14252;DHT22;7210;51.502;10.722;2024-03-23T00:59:30;8.50;99.90
14252;DHT22;7210;51.502;10.722;2024-03-23T01:01:57;8.50;99.90
14252;DHT22;7210;51.502;10.722;2024-03-23T01:04:24;8.50;99.90
14252;DHT22;7210;51.502;10.722;2024-03-23T01:06:50;8.50;99.90
14252;DHT22;7210;51.502;10.722;2024-03-23T01:09:22;8.40;99.90
14252;DHT22;7210;51.502;10.722;2024-03-23T01:11:49;8.40;99.90
14252;DHT22;7210;51.502;10.722;2024-03-23T01:14:16;8.40;99.90
14252;DHT22;7210;51.502;10.722;2024-03-23T01:16:45;8.40;99.90
14252;DHT22;7210;51.502;10.722;2024-03-23T01:19:12;8.40;99.90
14252;DHT22;7210;51.502;10.722;2024-03-23T01:21:38;8.40;99.90
14252;DHT22;7210;51.502;10.722;2024-03-23T01:24:05;8.30;99.90
14252;DHT22;7210;51.502;10.722;2024-03-23T01:26:33;8.30;99.90
14252;DHT22;7210;51.502;10.722;2024-03-23T01:29:00;8.40;99.90
14252;DHT22;7210;51.502;10.722;2024-03-23T01:31:27;8.40;99.90
14252;DHT22;7210;51.502;10.722;2024-03-23T01:33:54;8.40;99.90
14252;DHT22;7210;51.502;10.722;2024-03-23T01:36:20;8.40;99.90
14252;DHT22;7210;51.502;10.722;2024-03-23T01:38:47;8.40;99.90
14252;DHT22;7210;51.502;10.722;2024-03-23T01:41:13;8.40;99.90
14252;DHT22;7210;51.502;10.722;2024-03-23T01:43:42;8.40;99.90
14252;DHT22;7210;51.502;10.722;2024-03-23T01:46:08;8.40;99.90
14252;DHT22;7210;51.502;10.722;2024-03-23T01:48:36;8.40;99.90
14252;DHT22;7210;51.502;10.722;2024-03-23T01:51:02;8.40;99.90
14252;DHT22;7210;51.502;10.722;2024-03-23T01:53:31;8.40;99.90
14252;DHT22;7210;51.502;10.722;2024-03-23T01:55:57;8.40;99.90
14252;DHT22;7210;51.502;10.722;2024-03-23T01:58:25;8.40;99.90
14252;DHT22;7210;51.502;10.722;2024-03-23T02:00:52;8.30;99.90
14252;DHT22;7210;51.502;10.722;2024-03-23T02:03:22;8.30;99.90
14252;DHT22;7210;51.502;10.722;2024-03-23T02:05:49;8.30;99.90
14252;DHT22;7210;51.502;10.722;2024-03-23T02:08:17;8.20;99.90
14252;DHT22;7210;51.502;10.722;2024-03-23T02:10:45;8.10;99.90
14252;DHT22;7210;51.502;10.722;2024-03-23T02:13:15;8.00;99.90
14252;DHT22;7210;51.502;10.722;2024-03-23T02:15:42;8.00;99.90
14252;DHT22;7210;51.502;10.722;2024-03-23T02:18:11;7.90;99.90
14252;DHT22;7210;51.502;10.722;2024-03-23T02:20:38;7.90;99.90
14252;DHT22;7210;51.502;10.722;2024-03-23T02:23:13;7.80;99.90
14252;DHT22;7210;51.502;10.722;2024-03-23T02:25:39;7.70;99.90
14252;DHT22;7210;51.502;10.722;2024-03-23T02:28:06;7.70;99.90
14252;DHT22;7210;51.502;10.722;2024-03-23T02:30:33;7.60;99.90
14252;DHT22;7210;51.502;10.722;2024-03-23T02:33:00;7.50;99.90
14252;DHT22;7210;51.502;10.722;2024-03-23T02:35:26;7.50;99.90
14252;DHT22;7210;51.502;10.722;2024-03-23T02:37:53;7.50;99.90
14252;DHT22;7210;51.502;10.722;2024-03-23T02:40:23;7.50;99.90
14252;DHT22;7210;51.502;10.722;2024-03-23T02:42:50;7.50;99.90
14252;DHT22;7210;51.502;10.722;2024-03-23T02:45:17;7.60;99.90
14252;DHT22;7210;51.502;10.722;2024-03-23T02:47:44;7.60;99.90
14252;DHT22;7210;51.502;10.722;2024-03-23T02:50:10;7.60;99.90
14252;DHT22;7210;51.502;10.722;2024-03-23T02:52:37;7.70;99.90
14252;DHT22;7210;51.502;10.722;2024-03-23T02:55:04;7.70;99.90
14252;DHT22;7210;51.502;10.722;2024-03-23T02:57:32;7.70;99.90
14252;DHT22;7210;51.502;10.722;2024-03-23T02:59:58;7.70;99.90
14252;DHT22;7210;51.502;10.722;2024-03-23T03:02:25;7.80;99.90
14252;DHT22;7210;51.502;10.722;2024-03-23T03:04:52;7.80;99.90
14252;DHT22;7210;51.502;10.722;2024-03-23T03:07:19;7.90;99.90
14252;DHT22;7210;51.502;10.722;2024-03-23T03:09:45;7.80;99.90
14252;DHT22;7210;51.502;10.722;2024-03-23T03:12:12;7.80;99.90
14252;DHT22;7210;51.502;10.722;2024-03-23T03:14:40;7.70;99.90
14252;DHT22;7210;51.502;10.722;2024-03-23T03:17:06;7.70;99.90
14252;DHT22;7210;51.502;10.722;2024-03-23T03:19:34;7.70;99.90
14252;DHT22;7210;51.502;10.722;2024-03-23T03:22:00;7.80;99.90
14252;DHT22;7210;51.502;10.722;2024-03-23T03:24:27;7.80;99.90
14252;DHT22;7210;51.502;10.722;2024-03-23T03:26:53;7.80;99.90
14252;DHT22;7210;51.502;10.722;2024-03-23T03:29:20;7.80;99.90
14252;DHT22;7210;51.502;10.722;2024-03-23T03:31:47;7.80;99.90
14252;DHT22;7210;51.502;10.722;2024-03-23T03:34:15;7.80;99.90
14252;DHT22;7210;51.502;10.722;2024-03-23T03:36:41;7.80;99.90
14252;DHT22;7210;51.502;10.722;2024-03-23T03:39:09;7.90;99.90
14252;DHT22;7210;51.502;10.722;2024-03-23T03:41:35;7.90;99.90
14252;DHT22;7210;51.502;10.722;2024-03-23T03:44:02;7.70;99.90
14252;DHT22;7210;51.502;10.722;2024-03-23T03:46:29;7.70;99.90
14252;DHT22;7210;51.502;10.722;2024-03-23T03:48:57;7.70;99.90
14252;DHT22;7210;51.502;10.722;2024-03-23T03:51:23;7.70;99.90
14252;DHT22;7210;51.502;10.722;2024-03-23T03:53:51;7.60;99.90
14252;DHT22;7210;51.502;10.722;2024-03-23T03:56:17;7.50;99.90
14252;DHT22;7210;51.502;10.722;2024-03-23T03:58:44;7.50;99.90
14252;DHT22;7210;51.502;10.722;2024-03-23T04:01:27;7.40;99.90
14252;DHT22;7210;51.502;10.722;2024-03-23T04:04:04;7.40;99.90
14252;DHT22;7210;51.502;10.722;2024-03-23T04:06:30;7.40;99.90
14252;DHT22;7210;51.502;10.722;2024-03-23T04:08:58;7.30;99.90
14252;DHT22;7210;51.502;10.722;2024-03-23T04:11:25;7.40;99.90
14252;DHT22;7210;51.502;10.722;2024-03-23T04:13:52;7.30;99.90
14252;DHT22;7210;51.502;10.722;2024-03-23T04:16:26;7.40;99.90
14252;DHT22;7210;51.502;10.722;2024-03-23T04:18:57;7.30;99.90
14252;DHT22;7210;51.502;10.722;2024-03-23T04:21:28;7.30;99.90
14252;DHT22;7210;51.502;10.722;2024-03-23T04:23:55;7.10;99.90
14252;DHT22;7210;51.502;10.722;2024-03-23T04:26:21;7.10;99.90
14252;DHT22;7210;51.502;10.722;2024-03-23T04:28:49;7.20;99.90
14252;DHT22;7210;51.502;10.722;2024-03-23T04:31:15;7.20;99.90
14252;DHT22;7210;51.502;10.722;2024-03-23T04:33:42;7.20;99.90
14252;DHT22;7210;51.502;10.722;2024-03-23T04:36:08;7.10;99.90
14252;DHT22;7210;51.502;10.722;2024-03-23T04:38:37;7.00;99.90
14252;DHT22;7210;51.502;10.722;2024-03-23T04:41:04;7.00;99.90
14252;DHT22;7210;51.502;10.722;2024-03-23T04:43:32;6.90;99.90
14252;DHT22;7210;51.502;10.722;2024-03-23T04:45:59;6.90;99.90
14252;DHT22;7210;51.502;10.722;2024-03-23T04:48:27;6.90;99.90
14252;DHT22;7210;51.502;10.722;2024-03-23T04:50:58;6.90;99.90
14252;DHT22;7210;51.502;10.722;2024-03-23T04:53:25;6.90;99.90
14252;DHT22;7210;51.502;10.722;2024-03-23T04:56:04;6.80;99.90
14252;DHT22;7210;51.502;10.722;2024-03-23T04:58:32;6.80;99.90
14252;DHT22;7210;51.502;10.722;2024-03-23T05:00:58;6.80;64.10
14252;DHT22;7210;51.502;10.722;2024-03-23T05:03:33;6.90;67.30
14252;DHT22;7210;51.502;10.722;2024-03-23T05:06:00;6.80;78.30
14252;DHT22;7210;51.502;10.722;2024-03-23T05:08:31;6.80;99.90
14252;DHT22;7210;51.502;10.722;2024-03-23T05:11:00;6.70;99.90
14252;DHT22;7210;51.502;10.722;2024-03-23T05:13:28;6.60;99.90
14252;DHT22;7210;51.502;10.722;2024-03-23T05:15:55;6.50;99.90
14252;DHT22;7210;51.502;10.722;2024-03-23T05:18:22;6.50;88.00
14252;DHT22;7210;51.502;10.722;2024-03-23T05:20:57;6.50;90.90
14252;DHT22;7210;51.502;10.722;2024-03-23T05:23:25;6.40;96.90
14252;DHT22;7210;51.502;10.722;2024-03-23T05:25:54;6.40;76.10
14252;DHT22;7210;51.502;10.722;2024-03-23T05:28:23;6.30;62.40
14252;DHT22;7210;51.502;10.722;2024-03-23T05:30:53;6.30;53.90
14252;DHT22;7210;51.502;10.722;2024-03-23T05:33:21;6.30;38.40
14252;DHT22;7210;51.502;10.722;2024-03-23T05:35:56;6.30;27.50
14252;DHT22;7210;51.502;10.722;2024-03-23T05:38:24;6.30;15.00
14252;DHT22;7210;51.502;10.722;2024-03-23T05:40:54;6.30;9.10
14252;DHT22;7210;51.502;10.722;2024-03-23T05:43:23;6.30;12.60
14252;DHT22;7210;51.502;10.722;2024-03-23T05:45:53;6.30;20.10
14252;DHT22;7210;51.502;10.722;2024-03-23T05:48:21;6.20;14.60
14252;DHT22;7210;51.502;10.722;2024-03-23T05:50:48;6.30;1.00
14252;DHT22;7210;51.502;10.722;2024-03-23T05:53:16;6.30;1.00
14252;DHT22;7210;51.502;10.722;2024-03-23T05:55:42;6.40;1.00
14252;DHT22;7210;51.502;10.722;2024-03-23T05:58:10;6.40;1.00
14252;DHT22;7210;51.502;10.722;2024-03-23T06:00:47;6.40;1.00
14252;DHT22;7210;51.502;10.722;2024-03-23T06:03:14;6.30;1.00
14252;DHT22;7210;51.502;10.722;2024-03-23T06:05:45;6.30;1.00
14252;DHT22;7210;51.502;10.722;2024-03-23T06:08:12;6.20;1.00
14252;DHT22;7210;51.502;10.722;2024-03-23T06:10:38;6.20;1.00
14252;DHT22;7210;51.502;10.722;2024-03-23T06:13:05;6.20;1.00
14252;DHT22;7210;51.502;10.722;2024-03-23T06:15:32;6.10;1.00
14252;DHT22;7210;51.502;10.722;2024-03-23T06:18:05;6.20;1.00
14252;DHT22;7210;51.502;10.722;2024-03-23T06:20:33;6.10;1.00
14252;DHT22;7210;51.502;10.722;2024-03-23T06:23:00;6.00;1.00
14252;DHT22;7210;51.502;10.722;2024-03-23T06:25:27;5.80;94.60
14252;DHT22;7210;51.502;10.722;2024-03-23T06:27:57;5.70;99.90
14252;DHT22;7210;51.502;10.722;2024-03-23T06:30:23;5.60;99.90
14252;DHT22;7210;51.502;10.722;2024-03-23T06:32:52;5.40;87.30
14252;DHT22;7210;51.502;10.722;2024-03-23T06:35:20;5.40;44.80
14252;DHT22;7210;51.502;10.722;2024-03-23T06:37:47;5.30;47.70
14252;DHT22;7210;51.502;10.722;2024-03-23T06:40:13;5.20;42.60
14252;DHT22;7210;51.502;10.722;2024-03-23T06:42:40;5.10;33.80
14252;DHT22;7210;51.502;10.722;2024-03-23T06:45:07;5.10;33.90
14252;DHT22;7210;51.502;10.722;2024-03-23T06:47:39;5.00;22.90
14252;DHT22;7210;51.502;10.722;2024-03-23T06:50:06;5.00;14.30
14252;DHT22;7210;51.502;10.722;2024-03-23T06:52:37;5.00;1.00
14252;DHT22;7210;51.502;10.722;2024-03-23T06:55:04;5.00;18.10
14252;DHT22;7210;51.502;10.722;2024-03-23T06:57:33;4.90;59.60
14252;DHT22;7210;51.502;10.722;2024-03-23T06:59:59;4.90;73.50
14252;DHT22;7210;51.502;10.722;2024-03-23T07:02:26;4.80;99.90
14252;DHT22;7210;51.502;10.722;2024-03-23T07:04:52;4.70;99.90
14252;DHT22;7210;51.502;10.722;2024-03-23T07:07:19;4.70;99.90
14252;DHT22;7210;51.502;10.722;2024-03-23T07:09:47;4.70;99.90
14252;DHT22;7210;51.502;10.722;2024-03-23T07:12:14;4.60;99.90
14252;DHT22;7210;51.502;10.722;2024-03-23T07:14:40;4.70;69.10
14252;DHT22;7210;51.502;10.722;2024-03-23T07:17:07;4.80;42.00
14252;DHT22;7210;51.502;10.722;2024-03-23T07:19:33;4.70;43.80
14252;DHT22;7210;51.502;10.722;2024-03-23T07:22:00;4.60;50.50
14252;DHT22;7210;51.502;10.722;2024-03-23T07:24:26;4.60;51.00
14252;DHT22;7210;51.502;10.722;2024-03-23T07:26:54;4.50;54.30
14252;DHT22;7210;51.502;10.722;2024-03-23T07:29:23;4.50;41.00
14252;DHT22;7210;51.502;10.722;2024-03-23T07:31:50;4.40;75.70
14252;DHT22;7210;51.502;10.722;2024-03-23T07:34:16;4.40;86.00
14252;DHT22;7210;51.502;10.722;2024-03-23T07:36:44;4.30;91.10
14252;DHT22;7210;51.502;10.722;2024-03-23T07:39:10;4.40;54.40
14252;DHT22;7210;51.502;10.722;2024-03-23T07:41:38;4.40;55.70
14252;DHT22;7210;51.502;10.722;2024-03-23T07:44:05;4.40;55.40
14252;DHT22;7210;51.502;10.722;2024-03-23T07:46:33;4.40;54.60
14252;DHT22;7210;51.502;10.722;2024-03-23T07:48:59;4.40;61.00
14252;DHT22;7210;51.502;10.722;2024-03-23T07:51:26;4.40;45.30
14252;DHT22;7210;51.502;10.722;2024-03-23T07:53:57;4.40;53.10
14252;DHT22;7210;51.502;10.722;2024-03-23T07:56:27;4.40;35.20
14252;DHT22;7210;51.502;10.722;2024-03-23T07:58:53;4.30;74.40
14252;DHT22;7210;51.502;10.722;2024-03-23T08:01:21;4.30;59.00
14252;DHT22;7210;51.502;10.722;2024-03-23T08:03:49;4.30;66.00
14252;DHT22;7210;51.502;10.722;2024-03-23T08:06:18;4.30;44.80
14252;DHT22;7210;51.502;10.722;2024-03-23T08:08:47;4.30;49.00
14252;DHT22;7210;51.502;10.722;2024-03-23T08:11:39;4.30;34.30
14252;DHT22;7210;51.502;10.722;2024-03-23T08:14:09;4.40;34.50
14252;DHT22;7210;51.502;10.722;2024-03-23T08:16:37;4.30;30.00
14252;DHT22;7210;51.502;10.722;2024-03-23T08:19:03;4.40;15.90
14252;DHT22;7210;51.502;10.722;2024-03-23T08:21:30;4.40;23.00
14252;DHT22;7210;51.502;10.722;2024-03-23T08:23:57;4.30;49.40
14252;DHT22;7210;51.502;10.722;2024-03-23T08:26:27;4.30;32.10
14252;DHT22;7210;51.502;10.722;2024-03-23T08:28:53;4.20;49.70
14252;DHT22;7210;51.502;10.722;2024-03-23T08:31:20;4.20;41.20
14252;DHT22;7210;51.502;10.722;2024-03-23T08:33:48;4.20;61.70
14252;DHT22;7210;51.502;10.722;2024-03-23T08:36:15;4.10;68.80
14252;DHT22;7210;51.502;10.722;2024-03-23T08:38:42;4.10;57.10
14252;DHT22;7210;51.502;10.722;2024-03-23T08:41:10;4.20;75.70
14252;DHT22;7210;51.502;10.722;2024-03-23T08:43:37;4.40;95.10
14252;DHT22;7210;51.502;10.722;2024-03-23T08:46:06;4.40;83.20
14252;DHT22;7210;51.502;10.722;2024-03-23T08:48:34;4.50;77.90
14252;DHT22;7210;51.502;10.722;2024-03-23T08:51:04;4.50;99.90
14252;DHT22;7210;51.502;10.722;2024-03-23T08:53:31;4.50;81.10
14252;DHT22;7210;51.502;10.722;2024-03-23T08:55:59;4.50;78.50
14252;DHT22;7210;51.502;10.722;2024-03-23T08:58:27;4.60;46.00
14252;DHT22;7210;51.502;10.722;2024-03-23T09:01:03;4.60;41.10
14252;DHT22;7210;51.502;10.722;2024-03-23T09:03:30;4.70;28.10
14252;DHT22;7210;51.502;10.722;2024-03-23T09:05:59;4.80;29.10
14252;DHT22;7210;51.502;10.722;2024-03-23T09:08:28;4.80;53.30
14252;DHT22;7210;51.502;10.722;2024-03-23T09:10:55;4.80;88.80
14252;DHT22;7210;51.502;10.722;2024-03-23T09:13:27;4.80;80.70
14252;DHT22;7210;51.502;10.722;2024-03-23T09:15:57;4.80;99.90
14252;DHT22;7210;51.502;10.722;2024-03-23T09:18:23;4.90;99.90
14252;DHT22;7210;51.502;10.722;2024-03-23T09:20:51;4.90;99.90
14252;DHT22;7210;51.502;10.722;2024-03-23T09:23:18;4.80;99.90
14252;DHT22;7210;51.502;10.722;2024-03-23T09:25:47;4.90;99.90
14252;DHT22;7210;51.502;10.722;2024-03-23T09:28:15;4.90;99.90
14252;DHT22;7210;51.502;10.722;2024-03-23T09:30:42;4.80;99.90
14252;DHT22;7210;51.502;10.722;2024-03-23T09:33:08;4.90;99.90
14252;DHT22;7210;51.502;10.722;2024-03-23T09:35:39;4.90;99.90
14252;DHT22;7210;51.502;10.722;2024-03-23T09:38:06;4.90;99.90
14252;DHT22;7210;51.502;10.722;2024-03-23T09:40:35;4.90;99.90
14252;DHT22;7210;51.502;10.722;2024-03-23T09:43:07;4.80;99.90
14252;DHT22;7210;51.502;10.722;2024-03-23T09:45:38;4.80;99.90
14252;DHT22;7210;51.502;10.722;2024-03-23T09:48:07;4.90;99.90
14252;DHT22;7210;51.502;10.722;2024-03-23T09:50:36;5.00;99.90
14252;DHT22;7210;51.502;10.722;2024-03-23T09:53:03;5.00;99.90
14252;DHT22;7210;51.502;10.722;2024-03-23T09:55:31;5.10;99.90
14252;DHT22;7210;51.502;10.722;2024-03-23T09:57:57;5.30;99.90
14252;DHT22;7210;51.502;10.722;2024-03-23T10:00:25;5.40;99.90
14252;DHT22;7210;51.502;10.722;2024-03-23T10:02:52;5.50;99.90
14252;DHT22;7210;51.502;10.722;2024-03-23T10:05:23;5.70;99.90
14252;DHT22;7210;51.502;10.722;2024-03-23T10:07:50;5.90;99.90
14252;DHT22;7210;51.502;10.722;2024-03-23T10:10:17;6.00;99.90
14252;DHT22;7210;51.502;10.722;2024-03-23T10:12:45;6.20;99.90
14252;DHT22;7210;51.502;10.722;2024-03-23T10:15:18;6.30;99.90
14252;DHT22;7210;51.502;10.722;2024-03-23T10:17:47;6.30;99.90
14252;DHT22;7210;51.502;10.722;2024-03-23T10:20:19;6.30;99.90
14252;DHT22;7210;51.502;10.722;2024-03-23T10:22:46;6.20;99.90
14252;DHT22;7210;51.502;10.722;2024-03-23T10:25:13;6.30;99.90
14252;DHT22;7210;51.502;10.722;2024-03-23T10:27:40;6.40;99.90
14252;DHT22;7210;51.502;10.722;2024-03-23T10:30:09;6.40;99.90
14252;DHT22;7210;51.502;10.722;2024-03-23T10:32:37;6.30;99.90
14252;DHT22;7210;51.502;10.722;2024-03-23T10:35:16;6.30;99.90
14252;DHT22;7210;51.502;10.722;2024-03-23T10:37:45;6.30;99.90
14252;DHT22;7210;51.502;10.722;2024-03-23T10:40:15;6.50;99.90
14252;DHT22;7210;51.502;10.722;2024-03-23T10:42:44;6.80;99.90
14252;DHT22;7210;51.502;10.722;2024-03-23T10:45:11;7.00;99.90
14252;DHT22;7210;51.502;10.722;2024-03-23T10:47:38;7.10;99.90
14252;DHT22;7210;51.502;10.722;2024-03-23T10:50:05;7.20;99.90
14252;DHT22;7210;51.502;10.722;2024-03-23T10:52:34;7.10;99.90
14252;DHT22;7210;51.502;10.722;2024-03-23T10:55:04;7.10;99.90
14252;DHT22;7210;51.502;10.722;2024-03-23T10:57:38;7.30;99.90
14252;DHT22;7210;51.502;10.722;2024-03-23T11:00:09;7.60;99.90
14252;DHT22;7210;51.502;10.722;2024-03-23T11:02:36;7.80;99.90
14252;DHT22;7210;51.502;10.722;2024-03-23T11:05:29;7.70;99.90
14252;DHT22;7210;51.502;10.722;2024-03-23T11:07:58;8.00;99.90
14252;DHT22;7210;51.502;10.722;2024-03-23T11:10:26;8.00;99.90
14252;DHT22;7210;51.502;10.722;2024-03-23T11:12:54;8.00;99.90
14252;DHT22;7210;51.502;10.722;2024-03-23T11:15:21;7.90;99.90
14252;DHT22;7210;51.502;10.722;2024-03-23T11:18:04;7.80;99.90
14252;DHT22;7210;51.502;10.722;2024-03-23T11:20:34;8.00;99.90
14252;DHT22;7210;51.502;10.722;2024-03-23T11:23:02;8.10;99.90
14252;DHT22;7210;51.502;10.722;2024-03-23T11:25:31;8.10;99.90
14252;DHT22;7210;51.502;10.722;2024-03-23T11:28:11;8.00;99.90
14252;DHT22;7210;51.502;10.722;2024-03-23T11:30:39;7.90;99.90
14252;DHT22;7210;51.502;10.722;2024-03-23T11:33:05;7.80;99.90
14252;DHT22;7210;51.502;10.722;2024-03-23T11:35:34;7.90;99.90
14252;DHT22;7210;51.502;10.722;2024-03-23T11:38:05;8.10;99.90
14252;DHT22;7210;51.502;10.722;2024-03-23T11:40:40;8.20;99.90
14252;DHT22;7210;51.502;10.722;2024-03-23T11:43:09;8.00;99.90
14252;DHT22;7210;51.502;10.722;2024-03-23T11:45:38;7.70;99.90
14252;DHT22;7210;51.502;10.722;2024-03-23T11:48:07;7.40;99.90
14252;DHT22;7210;51.502;10.722;2024-03-23T11:50:38;7.30;99.90
14252;DHT22;7210;51.502;10.722;2024-03-23T11:53:15;7.30;99.90
14252;DHT22;7210;51.502;10.722;2024-03-23T11:55:47;7.60;99.90
14252;DHT22;7210;51.502;10.722;2024-03-23T11:58:14;8.00;99.90
14252;DHT22;7210;51.502;10.722;2024-03-23T12:00:42;8.30;99.90
14252;DHT22;7210;51.502;10.722;2024-03-23T12:03:21;8.50;99.90
14252;DHT22;7210;51.502;10.722;2024-03-23T12:05:52;8.60;99.90
14252;DHT22;7210;51.502;10.722;2024-03-23T12:08:22;8.80;99.90
14252;DHT22;7210;51.502;10.722;2024-03-23T12:10:52;8.80;99.90
14252;DHT22;7210;51.502;10.722;2024-03-23T12:13:29;8.90;99.90
14252;DHT22;7210;51.502;10.722;2024-03-23T12:16:09;9.10;99.90
14252;DHT22;7210;51.502;10.722;2024-03-23T12:18:36;9.20;99.90
14252;DHT22;7210;51.502;10.722;2024-03-23T12:21:09;9.50;99.90
14252;DHT22;7210;51.502;10.722;2024-03-23T12:23:39;9.40;99.90
14252;DHT22;7210;51.502;10.722;2024-03-23T12:26:07;9.20;99.90
14252;DHT22;7210;51.502;10.722;2024-03-23T12:28:33;8.90;99.90
14252;DHT22;7210;51.502;10.722;2024-03-23T12:31:03;8.10;99.90
14252;DHT22;7210;51.502;10.722;2024-03-23T12:33:30;6.10;99.90
14252;DHT22;7210;51.502;10.722;2024-03-23T12:35:57;4.80;99.90
14252;DHT22;7210;51.502;10.722;2024-03-23T12:38:23;4.00;99.90
14252;DHT22;7210;51.502;10.722;2024-03-23T12:40:52;3.50;99.90
14252;DHT22;7210;51.502;10.722;2024-03-23T12:43:21;3.40;99.90
14252;DHT22;7210;51.502;10.722;2024-03-23T12:45:48;3.40;99.90
14252;DHT22;7210;51.502;10.722;2024-03-23T12:48:15;3.60;99.90
14252;DHT22;7210;51.502;10.722;2024-03-23T12:50:42;3.80;99.90
14252;DHT22;7210;51.502;10.722;2024-03-23T12:53:15;3.90;99.90
14252;DHT22;7210;51.502;10.722;2024-03-23T12:55:42;3.90;99.90
14252;DHT22;7210;51.502;10.722;2024-03-23T12:58:10;4.00;99.90
14252;DHT22;7210;51.502;10.722;2024-03-23T13:00:39;4.20;99.90
14252;DHT22;7210;51.502;10.722;2024-03-23T13:03:13;4.50;92.10
14252;DHT22;7210;51.502;10.722;2024-03-23T13:05:41;4.90;4.20
14252;DHT22;7210;51.502;10.722;2024-03-23T13:08:07;5.20;2.00
14252;DHT22;7210;51.502;10.722;2024-03-23T13:10:34;5.50;52.80
14252;DHT22;7210;51.502;10.722;2024-03-23T13:13:00;5.70;99.90
14252;DHT22;7210;51.502;10.722;2024-03-23T13:15:29;5.90;99.90
14252;DHT22;7210;51.502;10.722;2024-03-23T13:17:55;6.20;99.90
14252;DHT22;7210;51.502;10.722;2024-03-23T13:20:22;6.40;99.90
14252;DHT22;7210;51.502;10.722;2024-03-23T13:22:48;6.50;99.90
14252;DHT22;7210;51.502;10.722;2024-03-23T13:25:17;6.60;99.90
14252;DHT22;7210;51.502;10.722;2024-03-23T13:27:44;6.80;99.90
14252;DHT22;7210;51.502;10.722;2024-03-23T13:30:12;6.60;99.90
14252;DHT22;7210;51.502;10.722;2024-03-23T13:32:40;6.20;99.90
14252;DHT22;7210;51.502;10.722;2024-03-23T13:35:07;6.10;99.90
14252;DHT22;7210;51.502;10.722;2024-03-23T13:37:33;6.00;99.90
14252;DHT22;7210;51.502;10.722;2024-03-23T13:40:00;6.00;99.90
14252;DHT22;7210;51.502;10.722;2024-03-23T13:42:26;6.00;99.90
14252;DHT22;7210;51.502;10.722;2024-03-23T13:44:53;6.00;99.90
14252;DHT22;7210;51.502;10.722;2024-03-23T13:47:19;6.00;99.90
14252;DHT22;7210;51.502;10.722;2024-03-23T13:49:48;6.00;99.90
14252;DHT22;7210;51.502;10.722;2024-03-23T13:52:15;6.00;99.90
14252;DHT22;7210;51.502;10.722;2024-03-23T13:54:45;6.10;99.90
14252;DHT22;7210;51.502;10.722;2024-03-23T13:57:12;6.30;99.90
14252;DHT22;7210;51.502;10.722;2024-03-23T13:59:39;6.50;99.90
14252;DHT22;7210;51.502;10.722;2024-03-23T14:02:09;6.80;99.90
14252;DHT22;7210;51.502;10.722;2024-03-23T14:04:37;6.90;99.90
14252;DHT22;7210;51.502;10.722;2024-03-23T14:07:06;6.90;99.90
14252;DHT22;7210;51.502;10.722;2024-03-23T14:09:34;6.90;99.90
14252;DHT22;7210;51.502;10.722;2024-03-23T14:12:00;7.00;99.90
14252;DHT22;7210;51.502;10.722;2024-03-23T14:14:27;6.90;99.90
14252;DHT22;7210;51.502;10.722;2024-03-23T14:16:53;7.00;99.90
14252;DHT22;7210;51.502;10.722;2024-03-23T14:19:21;6.80;99.90
14252;DHT22;7210;51.502;10.722;2024-03-23T14:21:47;6.90;99.90
14252;DHT22;7210;51.502;10.722;2024-03-23T14:24:15;6.90;99.90
14252;DHT22;7210;51.502;10.722;2024-03-23T14:26:42;7.00;99.90
14252;DHT22;7210;51.502;10.722;2024-03-23T14:29:09;7.10;99.90
14252;DHT22;7210;51.502;10.722;2024-03-23T14:31:36;7.10;99.90
14252;DHT22;7210;51.502;10.722;2024-03-23T14:34:03;7.10;99.90
14252;DHT22;7210;51.502;10.722;2024-03-23T14:36:29;7.20;99.90
14252;DHT22;7210;51.502;10.722;2024-03-23T14:38:56;7.40;99.90
14252;DHT22;7210;51.502;10.722;2024-03-23T14:41:24;7.40;99.90
14252;DHT22;7210;51.502;10.722;2024-03-23T14:43:52;7.40;99.90
14252;DHT22;7210;51.502;10.722;2024-03-23T14:46:19;7.30;99.90
14252;DHT22;7210;51.502;10.722;2024-03-23T14:48:47;7.20;99.90
14252;DHT22;7210;51.502;10.722;2024-03-23T14:51:13;7.10;99.90
14252;DHT22;7210;51.502;10.722;2024-03-23T14:53:45;7.10;99.90
14252;DHT22;7210;51.502;10.722;2024-03-23T14:56:12;7.10;99.90
14252;DHT22;7210;51.502;10.722;2024-03-23T14:58:42;7.00;99.90
14252;DHT22;7210;51.502;10.722;2024-03-23T15:01:09;6.90;99.90
14252;DHT22;7210;51.502;10.722;2024-03-23T15:03:37;6.90;99.90
14252;DHT22;7210;51.502;10.722;2024-03-23T15:06:05;6.80;99.90
14252;DHT22;7210;51.502;10.722;2024-03-23T15:08:34;6.70;99.90
14252;DHT22;7210;51.502;10.722;2024-03-23T15:11:02;6.10;99.90
14252;DHT22;7210;51.502;10.722;2024-03-23T15:13:31;5.50;99.90
14252;DHT22;7210;51.502;10.722;2024-03-23T15:15:58;5.00;99.90
14252;DHT22;7210;51.502;10.722;2024-03-23T15:18:25;4.80;99.90
14252;DHT22;7210;51.502;10.722;2024-03-23T15:20:52;4.70;99.90
14252;DHT22;7210;51.502;10.722;2024-03-23T15:23:20;4.80;99.90
14252;DHT22;7210;51.502;10.722;2024-03-23T15:25:54;4.80;99.90
14252;DHT22;7210;51.502;10.722;2024-03-23T15:28:21;4.80;99.90
14252;DHT22;7210;51.502;10.722;2024-03-23T15:30:48;4.90;99.90
14252;DHT22;7210;51.502;10.722;2024-03-23T15:33:17;5.10;99.90
14252;DHT22;7210;51.502;10.722;2024-03-23T15:35:43;5.30;99.90
14252;DHT22;7210;51.502;10.722;2024-03-23T15:38:10;5.40;99.90
14252;DHT22;7210;51.502;10.722;2024-03-23T15:40:36;5.40;99.90
14252;DHT22;7210;51.502;10.722;2024-03-23T15:43:05;5.40;99.90
14252;DHT22;7210;51.502;10.722;2024-03-23T15:45:31;5.50;99.90
14252;DHT22;7210;51.502;10.722;2024-03-23T15:47:59;5.40;99.90
14252;DHT22;7210;51.502;10.722;2024-03-23T15:50:26;5.50;99.90
14252;DHT22;7210;51.502;10.722;2024-03-23T15:52:53;5.40;99.90
14252;DHT22;7210;51.502;10.722;2024-03-23T15:55:21;5.50;99.90
14252;DHT22;7210;51.502;10.722;2024-03-23T15:57:48;5.50;99.90
14252;DHT22;7210;51.502;10.722;2024-03-23T16:00:16;5.50;99.90
14252;DHT22;7210;51.502;10.722;2024-03-23T16:02:45;5.50;99.90
14252;DHT22;7210;51.502;10.722;2024-03-23T16:05:12;5.50;99.90
14252;DHT22;7210;51.502;10.722;2024-03-23T16:07:40;5.40;99.90
14252;DHT22;7210;51.502;10.722;2024-03-23T16:10:09;5.30;99.90
14252;DHT22;7210;51.502;10.722;2024-03-23T16:12:37;5.40;99.90
14252;DHT22;7210;51.502;10.722;2024-03-23T16:15:04;5.40;99.90
14252;DHT22;7210;51.502;10.722;2024-03-23T16:17:32;5.40;99.90
14252;DHT22;7210;51.502;10.722;2024-03-23T16:20:02;5.40;99.90
14252;DHT22;7210;51.502;10.722;2024-03-23T16:22:29;5.60;99.90
14252;DHT22;7210;51.502;10.722;2024-03-23T16:24:58;5.70;99.90
14252;DHT22;7210;51.502;10.722;2024-03-23T16:27:24;5.80;99.90
14252;DHT22;7210;51.502;10.722;2024-03-23T16:29:51;5.90;99.90
14252;DHT22;7210;51.502;10.722;2024-03-23T16:32:18;5.90;99.90
14252;DHT22;7210;51.502;10.722;2024-03-23T16:34:45;5.90;99.90
14252;DHT22;7210;51.502;10.722;2024-03-23T16:37:11;5.80;99.90
14252;DHT22;7210;51.502;10.722;2024-03-23T16:39:38;5.80;99.90
14252;DHT22;7210;51.502;10.722;2024-03-23T16:42:11;5.70;99.90
14252;DHT22;7210;51.502;10.722;2024-03-23T16:44:38;5.70;99.90
14252;DHT22;7210;51.502;10.722;2024-03-23T16:47:05;5.70;99.90